Flight Track Log - Related Links

Times and Time Zones

All times are in EDT time to prevent confusion due to time zone crossing. See the ELT218 flight status page for this flight to view local times or setup timezone preferences in your user account.

Time Position Orientation Groundspeed Altitude Reporting Facility
EDT Latitude Longitude Course Direction KTS MPH feet Rate Location/Type
Sat 01:54:11 PM 46.8114 -92.1928 233° Southwest 115 132 5,600  Level Minneapolis Center
Sat 01:55:13 PM 46.7872 -92.2250 222° Southwest 116 133 7,400 1,887 Climbing Minneapolis Center
Sat 01:56:15 PM 46.7583 -92.2667 225° Southwest 118 136 9,500 1,790 Climbing Minneapolis Center
Sat 01:57:17 PM 46.7306 -92.3067 225° Southwest 131 151 11,100 1,452 Climbing Minneapolis Center
Sat 01:58:00 PM 46.5269 -92.3983 224° Southwest  Level Estimated
Sat 01:58:19 PM 46.7006 -92.3497 225° Southwest 144 166 12,500  Level Minneapolis Center
Sat 01:59:00 PM 46.4922 -92.4648 233° Southwest  Level FlightAware Approximate
Sat 01:59:21 PM 46.6717 -92.3922 225° Southwest 148 170 13,800  Level Minneapolis Center
Sat 02:00:23 PM 46.6383 -92.4378 223° Southwest 158 182 13,800  Level Minneapolis Center
Sat 02:01:25 PM 46.5967 -92.4822 216° Southwest 178 205 13,800  Level Minneapolis Center
Sat 02:02:28 PM 46.5483 -92.5333 216° Southwest 180 207 13,800  Level Minneapolis Center
Sat 02:03:30 PM 46.5056 -92.5789 216° Southwest 186 214 13,800  Level Minneapolis Center
Sat 02:04:32 PM 46.4597 -92.6269 216° Southwest 198 228 13,800  Level Minneapolis Center
Sat 02:05:34 PM 46.4147 -92.6761 217° Southwest 202 232 13,800  Level Minneapolis Center
Sat 02:06:36 PM 46.3694 -92.7214 215° Southwest 200 230 13,800  Level Minneapolis Center
Sat 02:07:38 PM 46.3256 -92.7692 217° Southwest 199 229 13,800  Level Minneapolis Center
Sat 02:08:40 PM 46.2733 -92.8214 215° Southwest 194 223 13,800  Level Minneapolis Center
Sat 02:09:42 PM 46.2300 -92.8678 217° Southwest 194 223 13,800 48 Level Minneapolis Center
Sat 02:10:44 PM 46.1853 -92.9136 215° Southwest 194 223 13,900 48 Climbing Minneapolis Center
Sat 02:11:46 PM 46.1419 -92.9594 216° Southwest 195 224 13,900 -48 Level Minneapolis Center
Sat 02:12:48 PM 46.1000 -93.0019 215° Southwest 190 219 13,800 -339 Descending Minneapolis Center
Sat 02:13:50 PM 46.0539 -93.0483 215° Southwest 196 226 13,200 -629 Descending Minneapolis Center
Sat 02:14:52 PM 45.9986 -93.1078 217° Southwest 203 234 12,500 -629 Descending Minneapolis Center
Sat 02:15:54 PM 45.9508 -93.1569 216° Southwest 207 238 11,900 -624 Descending Minneapolis Center
Sat 02:16:57 PM 45.9036 -93.2036 215° Southwest 208 239 11,200 -624 Descending Minneapolis Center
Sat 02:17:59 PM 45.8567 -93.2547 217° Southwest 211 243 10,600 -581 Descending Minneapolis Center
Sat 02:19:01 PM 45.8097 -93.3033 216° Southwest 210 242 10,000 -581 Descending Minneapolis Center
Sat 02:20:03 PM 45.7639 -93.3503 216° Southwest 205 236 9,400 -634 Descending Minneapolis Center
Sat 02:21:04 PM 45.7078 -93.4069 215° Southwest 206 237 8,700 -585 Descending Minneapolis Center
Sat 02:22:06 PM 45.6619 -93.4539 216° Southwest 204 235 8,200 -484 Descending Minneapolis Center
Sat 02:23:08 PM 45.6158 -93.5017 216° Southwest 204 235 7,700 -484 Descending Minneapolis Center
Sat 02:24:10 PM 45.5689 -93.5489 215° Southwest 207 238 7,200 -290 Descending Minneapolis Center
Sat 02:25:12 PM 45.5150 -93.5753 199° South 223 257 7,100 -242 Descending Minneapolis Center
Sat 02:26:14 PM 45.4525 -93.5486 163° South 235 270 6,700 -774 Descending Minneapolis Center
Sat 02:27:16 PM 45.3717 -93.5608 186° South 242 278 5,500 -1,065 Descending Minneapolis Center
Sat 02:28:18 PM 45.3083 -93.5814 193° South 235 270 4,500 -968 Descending Minneapolis Center
Sat 02:29:20 PM 45.2461 -93.5997 192° South 230 265 3,500 -677 Descending Minneapolis Center
Sat 02:30:22 PM 45.1839 -93.6203 193° South 231 266 3,100 -194 Descending Minneapolis Center
Sat 02:31:24 PM 45.1250 -93.6403 193° South 220 253 3,100  Level Minneapolis Center
Sat 02:32:26 PM 45.0550 -93.6633 193° South 217 250 3,100  Level Minneapolis Center
Sat 02:33:28 PM 44.9961 -93.6831 193° South 218 251 3,100  Level Minneapolis Center
Sat 02:34:30 PM 44.9375 -93.7028 193° South 218 251 3,100  Level Minneapolis Center
Sat 02:35:32 PM 44.8783 -93.7106 185° South 220 253 3,100  Level Minneapolis Center
Sat 02:36:34 PM 44.8506 -93.6297 116° Southeast 232 267 3,100 -435 Level Minneapolis Center
Sat 02:37:36 PM 44.8414 -93.5581 100° East 186 214 2,200 -484 Descending Minneapolis Center
Sat 02:38:38 PM 44.8133 -93.4867 119° Southeast 179 206 2,100 -290 Descending Minneapolis Center
Sat 02:39:40 PM 44.8108 -93.4278 93° East 163 188 1,600 -581 Descending Minneapolis Center
Sat 02:40:42 PM 44.8278 -93.4586 308° West 117 135 900 -677 Descending Minneapolis Center

Login

Don't have an account? Register now (free) for customized features, flight alerts, and more!